Thunder radar more information blitzortung!


Radar de pluja more information rain snow radar


Visita la nostra xarxa de llocs de meteo:

Template documentation
and downloads

And another site



No particular awareness of the weather is required.    There are no Weather-warnings

Pagina Historial Weather Underground text

Diari Resum Octubre 9, 2017 Unitats:  Mètric    Imperial   Tant
« Previous Dia
SegĂźent Dia »
Diari Setmana Mensual Anual Personalitzada
  Maxima: Minima: Media:
Temperatura: -17.8 °C -11.1 °C -7.9 °C
Punt de rosada: -17.8 °C -12.9 °C -11.1 °C
Humitat: Humidity % 51 % 71 %
Wind Speed: 0 km/h 0 km/h 6 km/h
RĂ fegues de vent: 0 km/h - -
Vent:- - SSE
Pression baro: 0 hPa 34496.6 hPa -
Precipitacions: 0 mm    
Historical Graphs
 
 
Dades de taula per Octubre 9, 2017
Temps Temperatura Punt de rosada Pression baro Vent Wind Speed RĂ fegues de vent Humitat Rainfall Rate (Hourly)
-17.8 °C -17.8 °C 0 hPa Calm     Humidity % 0 mm
00:03 -8.6 °C -10.9 °C 34567.7 hPa Calm     77 % 0 mm
00:08 -8.7 °C -10.8 °C 34567.7 hPa Calm     78 % 0 mm
00:13 -8.7 °C -10.9 °C 34567.7 hPa Calm     77 % 0 mm
00:18 -8.7 °C -10.9 °C 34567.7 hPa Calm     77 % 0 mm
00:23 -8.8 °C -11 °C 34567.7 hPa Calm     77 % 0 mm
00:28 -8.8 °C -10.9 °C 34567.7 hPa Calm     78 % 0 mm
00:33 -8.8 °C -10.9 °C 34567.7 hPa Calm     78 % 0 mm
00:38 -8.9 °C -11 °C 34567.7 hPa Calm     78 % 0 mm
00:43 -8.9 °C -11.1 °C 34567.7 hPa Calm     78 % 0 mm
00:48 -9 °C -11.2 °C 34567.7 hPa Calm     78 % 0 mm
00:53 -9.1 °C -11.2 °C 34567.7 hPa Calm     78 % 0 mm
00:58 -9.1 °C -11.2 °C 34567.7 hPa Calm     78 % 0 mm
01:03 -9.1 °C -11.2 °C 34567.7 hPa Calm     78 % 0 mm
01:08 -9.2 °C -11.3 °C 34567.7 hPa Calm     78 % 0 mm
01:14 -9.2 °C -11.3 °C 34533.8 hPa Calm     78 % 0 mm
01:19 -9.2 °C -11.2 °C 34533.8 hPa Calm     79 % 0 mm
01:24 -9.3 °C -11.3 °C 34533.8 hPa Calm     79 % 0 mm
01:29 -9.2 °C -11.3 °C 34533.8 hPa Calm     78 % 0 mm
01:34 -9.3 °C -11.3 °C 34533.8 hPa Calm     79 % 0 mm
01:39 -9.3 °C -11.3 °C 34533.8 hPa Calm     79 % 0 mm
01:44 -9.3 °C -11.4 °C 34533.8 hPa Calm     78 % 0 mm
01:49 -9.3 °C -11.4 °C 34533.8 hPa Calm     78 % 0 mm
01:54 -9.3 °C -11.3 °C 34533.8 hPa Calm     79 % 0 mm
01:59 -9.3 °C -11.4 °C 34533.8 hPa Calm     78 % 0 mm
02:04 -9.4 °C -11.4 °C 34533.8 hPa Calm     79 % 0 mm
02:09 -9.4 °C -11.4 °C 34533.8 hPa East 3.7 km/h 3.7 km/h 79 % 0 mm
02:14 -9.5 °C -11.5 °C 34533.8 hPa East 6 km/h 6 km/h 79 % 0 mm
02:19 -9.6 °C -11.6 °C 34533.8 hPa ENE 9 km/h 9 km/h 79 % 0 mm
02:24 -9.7 °C -11.7 °C 34533.8 hPa East 9 km/h 9 km/h 79 % 0 mm
02:34 -9.7 °C -11.7 °C 34533.8 hPa ENE 9 km/h 9 km/h 79 % 0 mm
02:39 -9.8 °C -11.8 °C 34533.8 hPa ESE 6 km/h 6 km/h 79 % 0 mm
02:44 -9.9 °C -11.8 °C 34533.8 hPa ESE 6 km/h 6 km/h 80 % 0 mm
02:49 -10 °C -12 °C 34533.8 hPa ENE 6 km/h 6 km/h 79 % 0 mm
02:54 -10.1 °C -12.1 °C 34533.8 hPa NE 6 km/h 6 km/h 79 % 0 mm
02:59 -10.1 °C -12.1 °C 34567.7 hPa NE 3.1 km/h   79 % 0 mm
03:04 -10.1 °C -12 °C 34567.7 hPa Calm     80 % 0 mm
03:09 -10.2 °C -12.1 °C 34567.7 hPa Calm     80 % 0 mm
03:14 -10.2 °C -12.2 °C 34567.7 hPa NE 6 km/h 6 km/h 79 % 0 mm
03:19 -10.3 °C -12.3 °C 34567.7 hPa SW 6 km/h 6 km/h 79 % 0 mm
03:24 -10.3 °C -12.2 °C 34567.7 hPa Calm     80 % 0 mm
03:29 -10.4 °C -12.3 °C 34533.8 hPa SW 2.3 km/h   80 % 0 mm
03:34 -10.4 °C -12.3 °C 34533.8 hPa Calm     80 % 0 mm
03:39 -10.4 °C -12.3 °C 34533.8 hPa Calm     80 % 0 mm
03:44 -10.4 °C -12.3 °C 34533.8 hPa SW 3.1 km/h 3.1 km/h 80 % 0 mm
03:49 -10.4 °C -12.3 °C 34533.8 hPa Calm     80 % 0 mm
03:54 -10.5 °C -12.4 °C 34533.8 hPa SW 3.1 km/h   80 % 0 mm
03:59 -10.6 °C -12.4 °C 34533.8 hPa Calm     80 % 0 mm
04:04 -10.6 °C -12.4 °C 34533.8 hPa SW 6 km/h   80 % 0 mm
04:09 -10.6 °C -12.4 °C 34533.8 hPa SW 6.3 km/h 6.3 km/h 80 % 0 mm
04:14 -10.6 °C -12.6 °C 34533.8 hPa SW 5.1 km/h 5.1 km/h 79 % 0 mm
04:19 -10.6 °C -12.6 °C 34533.8 hPa Calm     79 % 0 mm
04:24 -10.6 °C -12.4 °C 34533.8 hPa WSW 6 km/h   80 % 0 mm
04:29 -10.6 °C -12.4 °C 34533.8 hPa WSW 3.1 km/h 3.1 km/h 80 % 0 mm
04:34 -10.6 °C -12.4 °C 34533.8 hPa WSW 3.7 km/h 3.7 km/h 80 % 0 mm
04:41 -10.5 °C -12.4 °C 34533.8 hPa WSW 3.1 km/h 3.1 km/h 80 % 0 mm
04:46 -10.5 °C -12.4 °C 34533.8 hPa SW 6 km/h 6 km/h 80 % 0 mm
04:51 -10.5 °C -12.4 °C 34533.8 hPa SW 3.1 km/h   80 % 0 mm
04:56 -10.5 °C -12.4 °C 34533.8 hPa Calm     80 % 0 mm
05:01 -10.6 °C -12.4 °C 34533.8 hPa Calm     80 % 0 mm
05:06 -10.6 °C -12.4 °C 34533.8 hPa Calm     80 % 0 mm
05:12 -10.6 °C -12.4 °C 34533.8 hPa Calm     80 % 0 mm
05:17 -10.6 °C -12.4 °C 34533.8 hPa Calm     80 % 0 mm
05:19 -10.6 °C -12.4 °C 34533.8 hPa Calm     80 % 0 mm
05:22 -10.7 °C -12.6 °C 34533.8 hPa Calm     80 % 0 mm
05:23 -10.7 °C -12.6 °C 34533.8 hPa Calm     80 % 0 mm
05:24 -10.7 °C -12.6 °C 34533.8 hPa Calm     80 % 0 mm
05:26 -10.7 °C -12.6 °C 34533.8 hPa Calm     80 % 0 mm
05:27 -10.7 °C -12.6 °C 34533.8 hPa Calm     80 % 0 mm
05:32 -10.7 °C -12.6 °C 34533.8 hPa Calm     80 % 0 mm
05:35 -10.7 °C -12.6 °C 34533.8 hPa Calm     80 % 0 mm
05:40 -10.7 °C -12.6 °C 34533.8 hPa SW 6 km/h 6 km/h 80 % 0 mm
05:42 -10.7 °C -12.6 °C 34533.8 hPa SW 3.7 km/h 3.7 km/h 80 % 0 mm
05:47 -10.7 °C -12.6 °C 34533.8 hPa Calm     80 % 0 mm
05:52 -10.7 °C -12.5 °C 34533.8 hPa Calm     81 % 0 mm
05:57 -10.7 °C -12.6 °C 34533.8 hPa Calm     80 % 0 mm
06:02 -10.7 °C -12.6 °C 34533.8 hPa Calm     80 % 0 mm
06:07 -10.7 °C -12.6 °C 34533.8 hPa WSW 4.2 km/h 4.2 km/h 80 % 0 mm
06:12 -10.6 °C -12.4 °C 34533.8 hPa WSW 3.1 km/h 3.1 km/h 80 % 0 mm
06:22 -10.7 °C -12.6 °C 34533.8 hPa WSW 6 km/h 6 km/h 80 % 0 mm
06:27 -10.7 °C -12.6 °C 34533.8 hPa Calm     80 % 0 mm
06:32 -10.8 °C -12.7 °C 34533.8 hPa Calm     80 % 0 mm
06:37 -10.8 °C -12.7 °C 34533.8 hPa Calm     80 % 0 mm
06:42 -10.7 °C -12.5 °C 34533.8 hPa Calm     81 % 0 mm
06:44 -10.7 °C -12.5 °C 34533.8 hPa Calm     81 % 0 mm
06:49 -10.7 °C -12.6 °C 34533.8 hPa Calm     80 % 0 mm
06:54 -10.8 °C -12.7 °C 34533.8 hPa Calm     80 % 0 mm
06:59 -10.8 °C -12.6 °C 34533.8 hPa Calm     81 % 0 mm
07:04 -10.8 °C -12.7 °C 34533.8 hPa WSW 4.2 km/h   80 % 0 mm
07:09 -10.8 °C -12.7 °C 34533.8 hPa Calm     80 % 0 mm
07:14 -10.8 °C -12.6 °C 34533.8 hPa Calm     81 % 0 mm
07:19 -10.7 °C -12.5 °C 34533.8 hPa North 5.1 km/h 5.1 km/h 81 % 0 mm
07:24 -10.8 °C -12.6 °C 34533.8 hPa NE 3.7 km/h 4.2 km/h 81 % 0 mm
07:29 -10.8 °C -12.6 °C 34533.8 hPa NE 4.2 km/h 4.2 km/h 81 % 0 mm
07:39 -10.8 °C -12.6 °C 34533.8 hPa NE 6 km/h 6 km/h 81 % 0 mm
07:44 -10.9 °C -12.7 °C 34533.8 hPa North 3.1 km/h   81 % 0 mm
07:49 -10.9 °C -12.8 °C 34533.8 hPa WNW 4.2 km/h 4.2 km/h 80 % 0 mm
07:54 -11 °C -12.9 °C 34533.8 hPa WSW 6 km/h 6 km/h 80 % 0 mm
07:59 -11.1 °C -12.8 °C 34533.8 hPa Calm     81 % 0 mm
08:04 -11.1 °C -12.8 °C 34533.8 hPa Calm     81 % 0 mm
08:09 -11.1 °C -12.8 °C 34533.8 hPa Calm     81 % 0 mm
08:14 -11.1 °C -12.8 °C 34533.8 hPa SW 6 km/h 6 km/h 81 % 0 mm
08:19 -11.1 °C -12.8 °C 34533.8 hPa Calm     81 % 0 mm
08:24 -11.1 °C -12.8 °C 34533.8 hPa SW 5.1 km/h 5.1 km/h 81 % 0 mm
08:29 -11.1 °C -12.8 °C 34533.8 hPa SW 6.8 km/h 6.8 km/h 81 % 0 mm
08:34 -11 °C -12.7 °C 34533.8 hPa WSW 5.1 km/h 5.1 km/h 81 % 0 mm
08:39 -10.9 °C -12.7 °C 34533.8 hPa SW 6.3 km/h 6.3 km/h 81 % 0 mm
08:44 -10.9 °C -12.7 °C 34533.8 hPa SW 6 km/h 6 km/h 81 % 0 mm
08:49 -10.9 °C -12.7 °C 34533.8 hPa WSW 6 km/h 6 km/h 81 % 0 mm
08:54 -10.8 °C -12.4 °C 34533.8 hPa WSW 4.2 km/h 4.2 km/h 82 % 0 mm
08:59 -10.7 °C -12.4 °C 34567.7 hPa WSW 3.7 km/h   81 % 0 mm
09:04 -10.4 °C -12.1 °C 34567.7 hPa SW 3.1 km/h 3.7 km/h 82 % 0 mm
09:09 -10.2 °C -12 °C 34567.7 hPa SW 4.2 km/h 4.2 km/h 81 % 0 mm
09:14 -10 °C -11.9 °C 34567.7 hPa ESE 3.7 km/h   80 % 0 mm
09:19 -9.7 °C -11.7 °C 34567.7 hPa NE 3.7 km/h 3.7 km/h 79 % 0 mm
09:24 -9.6 °C -11.6 °C 34567.7 hPa SSE 4.2 km/h   79 % 0 mm
09:29 -9.8 °C -11.9 °C 34567.7 hPa WSW 6 km/h 6 km/h 78 % 0 mm
09:34 -9.6 °C -11.7 °C 34567.7 hPa WSW 6 km/h 6 km/h 78 % 0 mm
09:39 -9.4 °C -11.6 °C 34567.7 hPa South 3.1 km/h   78 % 0 mm
09:44 -9.4 °C -11.7 °C 34601.5 hPa SW 6 km/h 6 km/h 77 % 0 mm
09:49 -9.5 °C -11.7 °C 34601.5 hPa SW 3.1 km/h 4.2 km/h 77 % 0 mm
09:54 -9.2 °C -11.5 °C 34601.5 hPa NE 3.7 km/h   76 % 0 mm
09:59 -9 °C -11.6 °C 34567.7 hPa East 6.8 km/h 6.8 km/h 74 % 0 mm
10:04 -8.8 °C -11.5 °C 34567.7 hPa NE 6 km/h 6 km/h 73 % 0 mm
10:09 -8.6 °C -11.3 °C 34567.7 hPa NE 6 km/h 6 km/h 73 % 0 mm
10:14 -8.5 °C -11.4 °C 34567.7 hPa NNE 6 km/h 6 km/h 71 % 0 mm
10:19 -8.3 °C -11.4 °C 34567.7 hPa NNW 9 km/h 9 km/h 69 % 0 mm
10:24 -8.1 °C -11.4 °C 34567.7 hPa East 6.3 km/h 6.3 km/h 68 % 0 mm
10:29 -7.9 °C -11.4 °C 34601.5 hPa NE 8 km/h 8 km/h 67 % 0 mm
10:34 -7.8 °C -11.2 °C 34601.5 hPa NE 3.1 km/h   67 % 0 mm
10:39 -7.7 °C -11.3 °C 34601.5 hPa NNE 9 km/h 9 km/h 66 % 0 mm
10:44 -7.6 °C -11.2 °C 34601.5 hPa NE 6 km/h 6 km/h 66 % 0 mm
10:49 -7.4 °C -11.2 °C 34601.5 hPa East 6.3 km/h 6.3 km/h 65 % 0 mm
10:54 -7.5 °C -11.2 °C 34601.5 hPa North 9 km/h 9 km/h 65 % 0 mm
10:59 -7.4 °C -11.3 °C 34601.5 hPa ENE 11.9 km/h 11.9 km/h 64 % 0 mm
11:04 -7.6 °C -11.6 °C 34601.5 hPa NNE 11.9 km/h 11.9 km/h 63 % 0 mm
11:09 -7.4 °C -11.4 °C 34601.5 hPa NNE 15 km/h 15 km/h 63 % 0 mm
11:14 -7.4 °C -11.5 °C 34601.5 hPa ENE 15 km/h 15 km/h 62 % 0 mm
11:19 -7.3 °C -11.4 °C 34601.5 hPa NNE 9 km/h 9 km/h 62 % 0 mm
11:24 -7 °C -11.3 °C 34601.5 hPa NE 15 km/h 15 km/h 61 % 0 mm
11:29 -7.1 °C -11.3 °C 34601.5 hPa ENE 9 km/h 9 km/h 61 % 0 mm
11:34 -6.9 °C -11.4 °C 34601.5 hPa NNE 11.9 km/h 11.9 km/h 60 % 0 mm
11:39 -7.1 °C -11.5 °C 34601.5 hPa East 11.9 km/h 11.9 km/h 60 % 0 mm
11:44 -6.9 °C -11.3 °C 34601.5 hPa NE 11.9 km/h 11.9 km/h 60 % 0 mm
11:49 -6.8 °C -11.2 °C 34601.5 hPa NE 9.3 km/h 9.3 km/h 60 % 0 mm
11:54 -6.5 °C -11.1 °C 34601.5 hPa NW 6 km/h 6 km/h 59 % 0 mm
11:59 -6.2 °C -10.9 °C 34601.5 hPa WSW 9 km/h 9 km/h 58 % 0 mm
12:02 -6.2 °C -10.9 °C 34601.5 hPa South 6 km/h 6 km/h 58 % 0 mm
12:07 -6 °C -10.8 °C 34601.5 hPa ENE 9 km/h 9 km/h 58 % 0 mm
12:12 -6.1 °C -10.8 °C 34601.5 hPa ESE 12.7 km/h 12.7 km/h 58 % 0 mm
12:17 -6 °C -10.8 °C 34601.5 hPa SW 6 km/h 6 km/h 58 % 0 mm
12:22 -5.8 °C -10.6 °C 34601.5 hPa North 11.9 km/h 11.9 km/h 58 % 0 mm
12:27 -5.7 °C -10.3 °C 34601.5 hPa ENE 9.3 km/h 9.3 km/h 59 % 0 mm
12:32 -5.7 °C -10.3 °C 34601.5 hPa East 11.9 km/h 11.9 km/h 59 % 0 mm
12:37 -5.5 °C -10.2 °C 34601.5 hPa ESE 9 km/h 9 km/h 59 % 0 mm
12:42 -5.6 °C -10.2 °C 34601.5 hPa ESE 11.9 km/h 11.9 km/h 59 % 0 mm
12:47 -5.4 °C -9.9 °C 34601.5 hPa ESE 17.9 km/h 17.9 km/h 60 % 0 mm
12:52 -5.5 °C -10.3 °C 34601.5 hPa ESE 16.1 km/h 16.1 km/h 58 % 0 mm
12:57 -5.4 °C -10.2 °C 34601.5 hPa ENE 11.9 km/h 11.9 km/h 58 % 0 mm
13:02 -5.4 °C -10.2 °C 34601.5 hPa NW 15 km/h 15 km/h 58 % 0 mm
13:07 -5.3 °C -10.2 °C 34601.5 hPa ENE 11.9 km/h 11.9 km/h 58 % 0 mm
13:12 -5.1 °C -9.9 °C 34601.5 hPa SSE 9 km/h 9 km/h 58 % 0 mm
13:17 -5.1 °C -10.1 °C 34567.7 hPa SE 11.9 km/h 11.9 km/h 57 % 0 mm
13:22 -4.9 °C -9.9 °C 34567.7 hPa West 15 km/h 15 km/h 57 % 0 mm
13:27 -4.5 °C -9.7 °C 34567.7 hPa South 9 km/h 9 km/h 56 % 0 mm
13:32 -4.4 °C -9.8 °C 34567.7 hPa SSW 9.8 km/h 9.8 km/h 55 % 0 mm
13:37 -4.3 °C -9.8 °C 34567.7 hPa West 11.9 km/h 11.9 km/h 54 % 0 mm
13:42 -4.5 °C -10 °C 34567.7 hPa WSW 15 km/h 15 km/h 54 % 0 mm
13:47 -4.6 °C -9.9 °C 34533.8 hPa WSW 9.3 km/h 9.3 km/h 55 % 0 mm
13:52 -4.7 °C -10.2 °C 34533.8 hPa ESE 23.8 km/h 23.8 km/h 54 % 0 mm
13:57 -4.7 °C -10.1 °C 34533.8 hPa ENE 17.9 km/h 17.9 km/h 55 % 0 mm
14:02 -4.6 °C -9.9 °C 34496.6 hPa East 16.1 km/h 16.1 km/h 55 % 0 mm
14:07 -4.8 °C -10.2 °C 34496.6 hPa SSE 17.9 km/h 17.9 km/h 54 % 0 mm
14:12 -4.8 °C -10.2 °C 34496.6 hPa ESE 17.9 km/h 17.9 km/h 54 % 0 mm
14:17 -4.9 °C -10.2 °C 34533.8 hPa NE 15 km/h 15 km/h 55 % 0 mm
14:22 -4.9 °C -10.2 °C 34533.8 hPa NNE 11.9 km/h 11.9 km/h 55 % 0 mm
14:27 -4.6 °C -9.9 °C 34533.8 hPa East 15.3 km/h 15.6 km/h 55 % 0 mm
14:32 -4.3 °C -9.9 °C 34533.8 hPa SSE 15 km/h 15 km/h 53 % 0 mm
14:37 -4.1 °C -9.8 °C 34533.8 hPa ESE 15 km/h 15 km/h 53 % 0 mm
14:42 -3.8 °C -9.8 °C 34533.8 hPa East 11.9 km/h 11.9 km/h 51 % 0 mm
14:47 -4.1 °C -9.9 °C 34533.8 hPa ESE 22 km/h 22 km/h 52 % 0 mm
14:52 -4.5 °C -10 °C 34533.8 hPa East 17.9 km/h 17.9 km/h 54 % 0 mm
14:57 -4.3 °C -9.9 °C 34533.8 hPa ESE 16.1 km/h 16.1 km/h 53 % 0 mm
15:02 -4.3 °C -9.9 °C 34533.8 hPa ESE 23.8 km/h 23.8 km/h 53 % 0 mm
15:07 -4.5 °C -9.8 °C 34533.8 hPa ESE 25.9 km/h 25.9 km/h 55 % 0 mm
15:12 -4.7 °C -9.8 °C 34533.8 hPa ESE 17.9 km/h 17.9 km/h 56 % 0 mm
15:17 -4.8 °C -9.9 °C 34533.8 hPa ESE 9 km/h 9 km/h 56 % 0 mm
15:22 -4.9 °C -10.1 °C 34533.8 hPa SSW 9 km/h 9.8 km/h 56 % 0 mm
15:27 -4.8 °C -9.8 °C 34533.8 hPa SE 11.9 km/h 11.9 km/h 57 % 0 mm
15:32 -4.8 °C -9.9 °C 34533.8 hPa South 11.9 km/h 11.9 km/h 56 % 0 mm
15:37 -4.6 °C -9.8 °C 34533.8 hPa South 14 km/h 14 km/h 56 % 0 mm
15:42 -4.6 °C -9.8 °C 34533.8 hPa SSW 6 km/h 6.8 km/h 56 % 0 mm
15:47 -4.8 °C -9.9 °C 34533.8 hPa SSW 5.1 km/h 5.1 km/h 56 % 0 mm
15:52 -4.9 °C -10.1 °C 34533.8 hPa SW 8 km/h 8 km/h 56 % 0 mm
15:57 -5.1 °C -10.1 °C 34533.8 hPa SSE 15 km/h 15 km/h 57 % 0 mm
16:02 -5.2 °C -10.2 °C 34533.8 hPa ESE 6 km/h 6 km/h 57 % 0 mm
16:07 -5.3 °C -10.2 °C 34533.8 hPa SE 15 km/h 15 km/h 58 % 0 mm
16:12 -5.4 °C -10.2 °C 34533.8 hPa SSE 9 km/h 10.3 km/h 58 % 0 mm
16:17 -5.4 °C -10.2 °C 34533.8 hPa South 9 km/h 9 km/h 58 % 0 mm
16:22 -5.4 °C -10.1 °C 34533.8 hPa SE 11.9 km/h 11.9 km/h 59 % 0 mm
16:32 -5.6 °C -10.1 °C 34533.8 hPa ESE 15 km/h 15 km/h 60 % 0 mm
16:37 -5.6 °C -9.9 °C 34533.8 hPa SSE 12.2 km/h 12.2 km/h 61 % 0 mm
16:42 -5.6 °C -9.9 °C 34533.8 hPa South 11.9 km/h 11.9 km/h 61 % 0 mm
16:47 -5.6 °C -9.9 °C 34496.6 hPa SSW 9 km/h 9 km/h 61 % 0 mm
16:52 -5.6 °C -9.9 °C 34496.6 hPa SSW 9 km/h 9.3 km/h 61 % 0 mm
16:57 -5.6 °C -9.9 °C 34496.6 hPa South 17.9 km/h 17.9 km/h 61 % 0 mm
17:02 -5.6 °C -9.9 °C 34496.6 hPa South 11.9 km/h 11.9 km/h 61 % 0 mm
17:07 -5.5 °C -9.9 °C 34496.6 hPa SSE 16.6 km/h 16.6 km/h 61 % 0 mm
17:12 -5.4 °C -9.8 °C 34496.6 hPa SSE 17.9 km/h 17.9 km/h 61 % 0 mm
17:17 -5.2 °C -9.6 °C 34496.6 hPa West 9 km/h 9 km/h 61 % 0 mm
17:22 -4.9 °C -9.5 °C 34496.6 hPa SW 6.8 km/h 7.6 km/h 60 % 0 mm
17:27 -4.9 °C -9.4 °C 34496.6 hPa SW 15.3 km/h 15.3 km/h 60 % 0 mm
17:32 -5.1 °C -9.8 °C 34496.6 hPa SW 9 km/h 9 km/h 59 % 0 mm
17:37 -5.2 °C -9.8 °C 34496.6 hPa WSW 6 km/h   59 % 0 mm
17:43 -5 °C -9.7 °C 34496.6 hPa WSW 9 km/h 9 km/h 59 % 0 mm
17:48 -4.9 °C -9.6 °C 34496.6 hPa SW 20.9 km/h 20.9 km/h 59 % 0 mm
17:53 -5.1 °C -9.7 °C 34496.6 hPa WSW 19.2 km/h 19.2 km/h 60 % 0 mm
17:58 -5.1 °C -9.6 °C 34496.6 hPa South 15.3 km/h 15.3 km/h 60 % 0 mm
18:03 -5.1 °C -9.8 °C 34496.6 hPa South 14.5 km/h 14.5 km/h 59 % 0 mm
18:08 -5.3 °C -9.9 °C 34496.6 hPa SW 16.1 km/h 16.1 km/h 59 % 0 mm
18:13 -5.2 °C -9.9 °C 34496.6 hPa SW 15 km/h 15 km/h 59 % 0 mm
18:18 -5.3 °C -9.8 °C 34496.6 hPa SW 11.9 km/h 11.9 km/h 60 % 0 mm
18:23 -5.3 °C -9.8 °C 34496.6 hPa SW 15 km/h 15 km/h 60 % 0 mm
18:28 -5.4 °C -9.9 °C 34496.6 hPa South 11.9 km/h 11.9 km/h 60 % 0 mm
18:33 -5.4 °C -9.8 °C 34496.6 hPa SW 9.3 km/h 9.3 km/h 61 % 0 mm
18:38 -5.4 °C -9.8 °C 34496.6 hPa SW 11.9 km/h 11.9 km/h 61 % 0 mm
18:43 -5.6 °C -9.8 °C 34496.6 hPa West 11.9 km/h 11.9 km/h 62 % 0 mm
18:48 -5.7 °C -9.8 °C 34496.6 hPa West 9 km/h 9 km/h 63 % 0 mm
18:53 -5.8 °C -9.8 °C 34496.6 hPa South 11.9 km/h 11.9 km/h 63 % 0 mm
18:58 -5.8 °C -9.9 °C 34533.8 hPa SW 15 km/h 15 km/h 63 % 0 mm
19:03 -5.9 °C -10.1 °C 34533.8 hPa SSE 11.9 km/h 11.9 km/h 63 % 0 mm
19:08 -6.1 °C -10 °C 34533.8 hPa SW 6.3 km/h 6.3 km/h 64 % 0 mm
19:13 -6.2 °C -9.9 °C 34533.8 hPa SSW 15 km/h 15 km/h 65 % 0 mm
19:18 -6.3 °C -10.1 °C 34533.8 hPa ESE 11.9 km/h 11.9 km/h 65 % 0 mm
19:23 -6.4 °C -10.1 °C 34533.8 hPa West 9 km/h 9 km/h 66 % 0 mm
19:28 -6.4 °C -10.1 °C 34496.6 hPa WSW 9 km/h 9 km/h 66 % 0 mm
19:33 -6.6 °C -10.1 °C 34496.6 hPa SW 6 km/h 6 km/h 67 % 0 mm
19:38 -6.6 °C -10.1 °C 34496.6 hPa SW 6 km/h 6 km/h 67 % 0 mm
19:43 -6.7 °C -10.2 °C 34533.8 hPa WSW 5.1 km/h 6.3 km/h 67 % 0 mm
19:48 -6.7 °C -10.1 °C 34533.8 hPa SW 6 km/h 6 km/h 68 % 0 mm
19:53 -6.8 °C -10.1 °C 34533.8 hPa SW 6 km/h 6 km/h 69 % 0 mm
19:58 -6.8 °C -10.1 °C 34533.8 hPa SW 3.1 km/h   69 % 0 mm
20:03 -6.9 °C -10 °C 34533.8 hPa Calm     70 % 0 mm
20:08 -6.9 °C -10.1 °C 34533.8 hPa SW 4.2 km/h 4.2 km/h 70 % 0 mm
20:18 -7.1 °C -10.1 °C 34533.8 hPa SW 3.1 km/h   71 % 0 mm
20:23 -7.1 °C -10.1 °C 34533.8 hPa SW 3.1 km/h   71 % 0 mm
20:28 -7.1 °C -9.9 °C 34496.6 hPa SW 3.1 km/h   72 % 0 mm
20:33 -7.1 °C -9.9 °C 34496.6 hPa Calm     72 % 0 mm
20:38 -7.2 °C -10.1 °C 34496.6 hPa Calm     72 % 0 mm
20:43 -7.2 °C -10.1 °C 34533.8 hPa Calm     72 % 0 mm
20:48 -7.2 °C -9.9 °C 34533.8 hPa Calm     73 % 0 mm
20:53 -7.3 °C -9.9 °C 34533.8 hPa Calm     74 % 0 mm
20:58 -7.3 °C -9.9 °C 34533.8 hPa Calm     74 % 0 mm
21:03 -7.3 °C -9.8 °C 34533.8 hPa Calm     75 % 0 mm
21:08 -7.3 °C -9.8 °C 34533.8 hPa Calm     75 % 0 mm
21:18 -7.4 °C -9.9 °C 34533.8 hPa Calm     75 % 0 mm
21:23 -7.4 °C -9.8 °C 34533.8 hPa Calm     76 % 0 mm
21:28 -7.5 °C -9.9 °C 34533.8 hPa Calm     76 % 0 mm
21:33 -7.5 °C -9.9 °C 34533.8 hPa Calm     76 % 0 mm
21:38 -7.6 °C -9.9 °C 34533.8 hPa Calm     76 % 0 mm
21:43 -7.6 °C -9.9 °C 34533.8 hPa Calm     77 % 0 mm
21:48 -7.6 °C -9.9 °C 34533.8 hPa Calm     77 % 0 mm
21:53 -7.6 °C -9.9 °C 34533.8 hPa Calm     77 % 0 mm
21:58 -7.6 °C -9.9 °C 34533.8 hPa Calm     77 % 0 mm
22:08 -7.6 °C -9.8 °C 34533.8 hPa Calm     78 % 0 mm
22:13 -7.6 °C -9.8 °C 34533.8 hPa Calm     78 % 0 mm
22:18 -7.7 °C -9.8 °C 34533.8 hPa Calm     78 % 0 mm
22:23 -7.7 °C -9.8 °C 34533.8 hPa Calm     78 % 0 mm
22:33 -7.7 °C -9.8 °C 34567.7 hPa Calm     78 % 0 mm
22:38 -7.7 °C -9.7 °C 34567.7 hPa Calm     79 % 0 mm
22:43 -7.7 °C -9.7 °C 34533.8 hPa Calm     79 % 0 mm
22:48 -7.7 °C -9.7 °C 34533.8 hPa Calm     79 % 0 mm
22:58 -7.7 °C -9.8 °C 34533.8 hPa Calm     78 % 0 mm
23:03 -7.7 °C -9.9 °C 34533.8 hPa Calm     78 % 0 mm
23:08 -7.7 °C -9.9 °C 34533.8 hPa Calm     78 % 0 mm
23:13 -7.7 °C -9.9 °C 34533.8 hPa Calm     78 % 0 mm
23:23 -7.8 °C -9.8 °C 34533.8 hPa Calm     79 % 0 mm
23:28 -7.8 °C -9.8 °C 34533.8 hPa Calm     79 % 0 mm
23:33 -7.8 °C -9.8 °C 34533.8 hPa Calm     79 % 0 mm
23:38 -7.8 °C -9.8 °C 34533.8 hPa Calm     79 % 0 mm
23:43 -7.8 °C -9.8 °C 34533.8 hPa East 3.1 km/h   79 % 0 mm
23:48 -7.8 °C -9.7 °C 34533.8 hPa East 3.7 km/h 3.7 km/h 80 % 0 mm
23:54 -7.9 °C -9.9 °C 34533.8 hPa Calm     79 % 0 mm
23:59 -7.9 °C -9.8 °C 34533.8 hPa SSE 6 km/h 6 km/h 80 % 0 mm
Meteo Sesrovires
Elogis d' Weather Underground - 1.75 mb

Guio original per  Jim McMurry - jmcmurry@mwt.net Adaptat per a la plantilla per  Wim van der Kuil - Leuven-Template.eu

Trobareu la nostra informacio del temps tambe a:

Weather Underground

AWEKAS